createdAt,value
2017-12-21T00:00:02.506Z,1007.87
2017-12-21T00:01:02.521Z,1007.88
2017-12-21T00:02:02.449Z,1007.94
2017-12-21T00:03:02.430Z,1007.93
2017-12-21T00:04:02.429Z,1007.96
2017-12-21T00:05:02.391Z,1007.94
2017-12-21T00:06:02.355Z,1007.97
2017-12-21T00:07:02.342Z,1008.04
2017-12-21T00:08:02.344Z,1008.05
2017-12-21T00:09:02.323Z,1008.07
2017-12-21T00:10:02.274Z,1008.09
2017-12-21T00:11:02.296Z,1008.08
2017-12-21T00:12:02.272Z,1008.05
2017-12-21T00:13:02.205Z,1008.08
2017-12-21T00:14:03.072Z,1008.09
2017-12-21T00:15:02.163Z,1008.11
2017-12-21T00:16:02.142Z,1008.17
2017-12-21T00:17:02.113Z,1008.21
2017-12-21T00:18:02.090Z,1008.21
2017-12-21T00:19:02.079Z,1008.29
2017-12-21T00:20:02.061Z,1008.33
2017-12-21T00:21:02.075Z,1008.38
2017-12-21T00:22:02.016Z,1008.39
2017-12-21T00:23:02.006Z,1008.40
2017-12-21T00:24:01.971Z,1008.44
2017-12-21T00:25:02.600Z,1008.41
2017-12-21T00:26:01.942Z,1008.41
2017-12-21T00:27:01.928Z,1008.47
2017-12-21T00:28:01.866Z,1008.41
2017-12-21T00:29:01.839Z,1008.40
2017-12-21T00:30:01.863Z,1008.37
2017-12-21T00:31:01.809Z,1008.35
2017-12-21T00:32:01.782Z,1008.35
2017-12-21T00:33:01.734Z,1008.33
2017-12-21T00:34:01.767Z,1008.32
2017-12-21T00:35:01.732Z,1008.32
2017-12-21T00:36:01.671Z,1008.29
2017-12-21T00:37:01.658Z,1008.25
2017-12-21T00:38:01.650Z,1008.25
2017-12-21T00:39:01.628Z,1008.23
2017-12-21T00:40:01.638Z,1008.21
2017-12-21T00:41:01.591Z,1008.19
2017-12-21T00:42:01.561Z,1008.18
2017-12-21T00:43:01.518Z,1008.16
2017-12-21T00:44:01.486Z,1008.16
2017-12-21T00:45:01.514Z,1008.18
2017-12-21T00:46:01.451Z,1008.21
2017-12-21T00:47:01.433Z,1008.21
2017-12-21T00:48:01.434Z,1008.23
2017-12-21T00:49:01.388Z,1008.24
2017-12-21T00:50:01.379Z,1008.23
2017-12-21T00:51:01.342Z,1008.25
2017-12-21T00:52:01.351Z,1008.25
2017-12-21T00:53:01.330Z,1008.20
2017-12-21T00:54:01.267Z,1008.19
2017-12-21T00:55:01.265Z,1008.21
2017-12-21T00:56:01.220Z,1008.24
2017-12-21T00:57:01.258Z,1008.23
2017-12-21T00:58:01.180Z,1008.28
2017-12-21T00:59:01.202Z,1008.29
2017-12-21T01:00:01.144Z,1008.31
2017-12-21T01:01:01.134Z,1008.35
2017-12-21T01:02:01.168Z,1008.36
2017-12-21T01:03:01.090Z,1008.33
2017-12-21T01:04:01.081Z,1008.30
2017-12-21T01:05:01.055Z,1008.26
2017-12-21T01:06:01.012Z,1008.28
2017-12-21T01:07:00.977Z,1008.28
2017-12-21T01:08:01.001Z,1008.33
2017-12-21T01:09:00.994Z,1008.34
2017-12-21T01:10:00.924Z,1008.41
2017-12-21T01:11:00.925Z,1008.41
2017-12-21T01:12:00.954Z,1008.42
2017-12-21T01:13:00.888Z,1008.43
2017-12-21T01:14:00.845Z,1008.39
2017-12-21T01:15:00.791Z,1008.37
2017-12-21T01:16:00.943Z,1008.31
2017-12-21T01:17:00.867Z,1008.35
2017-12-21T01:18:00.832Z,1008.30
2017-12-21T01:19:00.760Z,1008.31
2017-12-21T01:20:00.699Z,1008.30
2017-12-21T01:21:00.693Z,1008.31
2017-12-21T01:22:02.640Z,1008.30
2017-12-21T01:23:00.680Z,1008.31
2017-12-21T01:24:00.646Z,1008.30
2017-12-21T01:25:00.695Z,1008.31
2017-12-21T01:26:00.606Z,1008.32
2017-12-21T01:27:00.579Z,1008.36
2017-12-21T01:28:00.536Z,1008.40
2017-12-21T01:29:00.512Z,1008.38
2017-12-21T01:30:00.537Z,1008.36
2017-12-21T01:31:00.457Z,1008.36
2017-12-21T01:32:00.473Z,1008.33
2017-12-21T01:33:00.446Z,1008.35
2017-12-21T01:34:00.461Z,1008.34
2017-12-21T01:35:00.393Z,1008.38
2017-12-21T01:36:00.420Z,1008.38
2017-12-21T01:37:00.352Z,1008.35
2017-12-21T01:38:00.309Z,1008.33
2017-12-21T01:39:00.262Z,1008.32
2017-12-21T01:40:00.290Z,1008.35
2017-12-21T01:41:00.236Z,1008.31
2017-12-21T01:42:00.230Z,1008.31
2017-12-21T01:43:00.224Z,1008.27
2017-12-21T01:44:00.220Z,1008.24
2017-12-21T01:45:00.171Z,1008.24
2017-12-21T01:46:00.135Z,1008.20
2017-12-21T01:47:00.145Z,1008.20
2017-12-21T01:48:00.201Z,1008.21
2017-12-21T01:49:00.140Z,1008.18
2017-12-21T01:50:00.087Z,1008.21
2017-12-21T01:51:00.150Z,1008.20
2017-12-21T01:51:59.982Z,1008.21
2017-12-21T01:53:00.028Z,1008.18
2017-12-21T01:53:59.969Z,1008.23
2017-12-21T01:54:59.926Z,1008.24
2017-12-21T01:55:59.983Z,1008.29
2017-12-21T01:56:59.884Z,1008.32
2017-12-21T01:57:59.852Z,1008.33
2017-12-21T01:58:59.939Z,1008.32
2017-12-21T02:00:00.632Z,1008.28
2017-12-21T02:00:59.822Z,1008.27
2017-12-21T02:01:59.819Z,1008.29
2017-12-21T02:02:59.774Z,1008.29
2017-12-21T02:03:59.824Z,1008.33
2017-12-21T02:04:59.731Z,1008.37
2017-12-21T02:05:59.683Z,1008.39
2017-12-21T02:06:59.710Z,1008.40
2017-12-21T02:07:59.655Z,1008.40
2017-12-21T02:08:59.620Z,1008.40
2017-12-21T02:09:59.593Z,1008.41
2017-12-21T02:10:59.594Z,1008.47
2017-12-21T02:11:59.561Z,1008.44
2017-12-21T02:12:59.537Z,1008.50
2017-12-21T02:13:59.583Z,1008.50
2017-12-21T02:14:59.509Z,1008.55
2017-12-21T02:15:59.540Z,1008.57
2017-12-21T02:16:59.429Z,1008.55
2017-12-21T02:17:59.446Z,1008.49
2017-12-21T02:18:59.413Z,1008.39
2017-12-21T02:19:59.405Z,1008.36
2017-12-21T02:20:59.353Z,1008.34
2017-12-21T02:21:59.322Z,1008.36
2017-12-21T02:22:59.365Z,1008.38
2017-12-21T02:23:59.291Z,1008.38
2017-12-21T02:24:59.328Z,1008.43
2017-12-21T02:25:59.188Z,1008.41
2017-12-21T02:26:59.201Z,1008.40
2017-12-21T02:27:59.190Z,1008.37
2017-12-21T02:29:00.114Z,1008.39
2017-12-21T02:29:59.187Z,1008.34
2017-12-21T02:30:59.174Z,1008.34
2017-12-21T02:31:59.132Z,1008.32
2017-12-21T02:32:59.062Z,1008.34
2017-12-21T02:33:59.113Z,1008.31
2017-12-21T02:34:59.117Z,1008.32
2017-12-21T02:35:59.028Z,1008.29
2017-12-21T02:36:58.960Z,1008.26
2017-12-21T02:37:59.030Z,1008.29
2017-12-21T02:38:58.963Z,1008.28
2017-12-21T02:39:59.002Z,1008.29
2017-12-21T02:40:58.997Z,1008.32
2017-12-21T02:41:58.868Z,1008.32
2017-12-21T02:42:58.827Z,1008.24
2017-12-21T02:43:58.866Z,1008.25
2017-12-21T02:44:58.823Z,1008.24
2017-12-21T02:45:58.823Z,1008.21
2017-12-21T02:46:58.723Z,1008.17
2017-12-21T02:47:58.780Z,1008.19
2017-12-21T02:48:58.748Z,1008.17
2017-12-21T02:49:58.646Z,1008.16
2017-12-21T02:50:58.653Z,1008.13
2017-12-21T02:51:58.674Z,1008.10
2017-12-21T02:52:58.586Z,1008.05
2017-12-21T02:53:58.654Z,1008.05
2017-12-21T02:54:58.591Z,1008.02
2017-12-21T02:55:58.576Z,1008.00
2017-12-21T02:56:58.559Z,1008.02
2017-12-21T02:57:58.550Z,1008.02
2017-12-21T02:58:58.493Z,1008.04
2017-12-21T02:59:58.533Z,1008.06
2017-12-21T03:00:58.452Z,1008.04
2017-12-21T03:01:58.441Z,1008.08
2017-12-21T03:02:58.365Z,1008.03
2017-12-21T03:03:58.383Z,1008.02
2017-12-21T03:04:58.347Z,1008.03
2017-12-21T03:05:58.360Z,1008.00
2017-12-21T03:06:58.366Z,1007.98
2017-12-21T03:07:59.153Z,1008.01
2017-12-21T03:08:58.284Z,1008.03
2017-12-21T03:09:58.232Z,1007.98
2017-12-21T03:10:58.186Z,1008.03
2017-12-21T03:11:58.171Z,1007.99
2017-12-21T03:12:58.176Z,1008.00
2017-12-21T03:13:58.179Z,1007.97
2017-12-21T03:14:58.079Z,1008.00
2017-12-21T03:15:58.080Z,1007.97
2017-12-21T03:16:58.028Z,1007.96
2017-12-21T03:17:58.009Z,1007.94
2017-12-21T03:18:58.618Z,1007.90
2017-12-21T03:19:58.018Z,1007.88
2017-12-21T03:20:57.945Z,1007.79
2017-12-21T03:21:57.962Z,1007.81
2017-12-21T03:22:57.977Z,1007.85
2017-12-21T03:23:57.963Z,1007.84
2017-12-21T03:24:57.869Z,1007.87
2017-12-21T03:25:57.841Z,1007.91
2017-12-21T03:26:57.823Z,1007.94
2017-12-21T03:27:59.673Z,1007.96
2017-12-21T03:28:59.077Z,1007.93
2017-12-21T03:30:01.579Z,1007.91
2017-12-21T03:30:58.183Z,1007.91
2017-12-21T03:31:57.769Z,1007.94
2017-12-21T03:32:57.694Z,1007.90
2017-12-21T03:33:58.516Z,1007.91
2017-12-21T03:34:58.049Z,1007.92
2017-12-21T03:35:58.159Z,1007.97
2017-12-21T03:36:58.223Z,1007.98
2017-12-21T03:37:58.021Z,1007.99
2017-12-21T03:38:58.015Z,1007.99
2017-12-21T03:39:58.553Z,1007.99
2017-12-21T03:40:57.775Z,1008.01
2017-12-21T03:41:57.750Z,1008.05
2017-12-21T03:42:57.643Z,1008.00
2017-12-21T03:43:57.846Z,1007.99
2017-12-21T03:44:57.663Z,1007.97
2017-12-21T03:45:57.662Z,1007.95
2017-12-21T03:46:57.642Z,1007.89
2017-12-21T03:47:57.501Z,1007.87
2017-12-21T03:48:57.482Z,1007.88
2017-12-21T03:49:57.513Z,1007.83
2017-12-21T03:51:00.364Z,1007.83
2017-12-21T03:51:57.423Z,1007.82
2017-12-21T03:52:57.518Z,1007.79
2017-12-21T03:53:57.324Z,1007.73
2017-12-21T03:54:57.633Z,1007.72
2017-12-21T03:55:57.447Z,1007.70
2017-12-21T03:56:57.215Z,1007.65
2017-12-21T03:57:57.282Z,1007.62
2017-12-21T03:58:57.196Z,1007.64
2017-12-21T03:59:57.252Z,1007.64
2017-12-21T04:00:57.286Z,1007.60
2017-12-21T04:01:57.874Z,1007.61
2017-12-21T04:02:57.302Z,1007.59
2017-12-21T04:03:57.220Z,1007.59
2017-12-21T04:04:57.092Z,1007.58
2017-12-21T04:05:57.079Z,1007.61
2017-12-21T04:06:57.324Z,1007.62
2017-12-21T04:07:57.193Z,1007.61
2017-12-21T04:08:57.705Z,1007.62
2017-12-21T04:09:57.820Z,1007.60
2017-12-21T04:12:33.703Z,1007.58
2017-12-21T04:15:26.122Z,1007.60
2017-12-21T04:16:26.238Z,1007.62
2017-12-21T04:17:26.123Z,1007.57
2017-12-21T04:18:26.009Z,1007.60
2017-12-21T04:19:26.079Z,1007.56
2017-12-21T04:20:26.604Z,1007.55
2017-12-21T04:21:26.078Z,1007.56
2017-12-21T04:22:26.593Z,1007.56
2017-12-21T04:23:25.913Z,1007.56
2017-12-21T04:24:25.955Z,1007.57
2017-12-21T04:25:26.985Z,1007.57
2017-12-21T04:26:25.977Z,1007.54
2017-12-21T04:27:26.481Z,1007.55
2017-12-21T04:28:25.933Z,1007.49
2017-12-21T04:29:25.863Z,1007.51
2017-12-21T04:30:25.611Z,1007.55
2017-12-21T04:31:25.407Z,1007.46
2017-12-21T04:32:25.501Z,1007.45
2017-12-21T04:33:25.364Z,1007.47
2017-12-21T04:34:25.349Z,1007.47
2017-12-21T04:35:25.338Z,1007.49
2017-12-21T04:36:25.335Z,1007.52
2017-12-21T04:37:25.267Z,1007.54
2017-12-21T04:38:25.265Z,1007.51
2017-12-21T04:39:25.210Z,1007.54
2017-12-21T04:40:25.213Z,1007.56
2017-12-21T04:41:25.170Z,1007.54
2017-12-21T04:42:25.177Z,1007.54
2017-12-21T04:43:25.138Z,1007.53
2017-12-21T04:44:26.841Z,1007.52
2017-12-21T04:45:25.154Z,1007.50
2017-12-21T04:46:25.129Z,1007.52
2017-12-21T04:47:25.053Z,1007.53
2017-12-21T04:48:25.125Z,1007.50
2017-12-21T04:49:25.046Z,1007.49
2017-12-21T04:50:24.970Z,1007.45
2017-12-21T04:51:24.941Z,1007.50
2017-12-21T04:52:24.963Z,1007.52
2017-12-21T04:53:24.939Z,1007.52
2017-12-21T04:54:24.897Z,1007.53
2017-12-21T04:55:24.880Z,1007.52
2017-12-21T04:56:24.857Z,1007.57
2017-12-21T04:57:24.814Z,1007.55
2017-12-21T04:58:24.789Z,1007.55
2017-12-21T04:59:24.792Z,1007.56
2017-12-21T05:00:24.800Z,1007.57
2017-12-21T05:01:24.777Z,1007.55
2017-12-21T05:02:24.711Z,1007.55
2017-12-21T05:03:24.705Z,1007.58
2017-12-21T05:04:24.673Z,1007.54
2017-12-21T05:05:25.316Z,1007.57
2017-12-21T05:06:24.634Z,1007.58
2017-12-21T05:07:24.600Z,1007.53
2017-12-21T05:08:24.565Z,1007.55
2017-12-21T05:09:24.559Z,1007.52
2017-12-21T05:10:24.550Z,1007.51
2017-12-21T05:11:24.496Z,1007.53
2017-12-21T05:12:24.510Z,1007.51
2017-12-21T05:13:24.487Z,1007.49
2017-12-21T05:14:24.421Z,1007.43
2017-12-21T05:15:24.413Z,1007.47
2017-12-21T05:16:24.431Z,1007.49
2017-12-21T05:17:24.412Z,1007.47
2017-12-21T05:18:24.346Z,1007.44
2017-12-21T05:19:24.315Z,1007.47
2017-12-21T05:20:24.345Z,1007.51
2017-12-21T05:21:24.276Z,1007.46
2017-12-21T05:22:24.263Z,1007.46
2017-12-21T05:23:24.255Z,1007.49
2017-12-21T05:24:24.269Z,1007.49
2017-12-21T05:25:24.190Z,1007.47
2017-12-21T05:26:25.795Z,1007.47
2017-12-21T05:27:24.185Z,1007.42
2017-12-21T05:28:24.123Z,1007.44
2017-12-21T05:29:24.117Z,1007.43
2017-12-21T05:30:24.068Z,1007.39
2017-12-21T05:31:24.120Z,1007.45
2017-12-21T05:32:24.087Z,1007.41
2017-12-21T05:33:24.019Z,1007.42
2017-12-21T05:34:24.005Z,1007.40
2017-12-21T05:35:23.992Z,1007.38
2017-12-21T05:36:24.005Z,1007.40
2017-12-21T05:37:23.964Z,1007.44
2017-12-21T05:38:23.955Z,1007.44
2017-12-21T05:39:23.909Z,1007.43
2017-12-21T05:40:23.897Z,1007.49
2017-12-21T05:41:23.838Z,1007.48
2017-12-21T05:42:23.798Z,1007.52
2017-12-21T05:43:23.799Z,1007.55
2017-12-21T05:44:23.859Z,1007.53
2017-12-21T05:45:23.751Z,1007.55
2017-12-21T05:46:23.735Z,1007.57
2017-12-21T05:47:23.720Z,1007.55
2017-12-21T05:48:23.726Z,1007.56
2017-12-21T05:49:23.702Z,1007.55
2017-12-21T05:50:23.646Z,1007.54
2017-12-21T05:51:23.619Z,1007.55
2017-12-21T05:52:23.618Z,1007.55
2017-12-21T05:53:23.575Z,1007.52
2017-12-21T05:54:23.565Z,1007.55
2017-12-21T05:55:23.554Z,1007.56
2017-12-21T05:56:23.512Z,1007.56
2017-12-21T05:57:23.486Z,1007.55
2017-12-21T05:58:23.455Z,1007.55
2017-12-21T05:59:23.467Z,1007.58
2017-12-21T06:00:23.434Z,1007.54
2017-12-21T06:01:23.383Z,1007.52
2017-12-21T06:02:23.372Z,1007.54
2017-12-21T06:03:23.388Z,1007.57
2017-12-21T06:04:23.393Z,1007.53
2017-12-21T06:05:23.393Z,1007.55
2017-12-21T06:06:23.882Z,1007.57
2017-12-21T06:07:23.345Z,1007.57
2017-12-21T06:08:23.283Z,1007.60
2017-12-21T06:09:23.279Z,1007.55
2017-12-21T06:10:23.197Z,1007.60
2017-12-21T06:11:23.197Z,1007.63
2017-12-21T06:12:23.335Z,1007.64
2017-12-21T06:13:23.456Z,1007.64
2017-12-21T06:14:23.147Z,1007.61
2017-12-21T06:15:23.087Z,1007.63
2017-12-21T06:16:23.066Z,1007.63
2017-12-21T06:17:23.029Z,1007.59
2017-12-21T06:18:22.999Z,1007.58
2017-12-21T06:19:23.032Z,1007.55
2017-12-21T06:20:22.963Z,1007.57
2017-12-21T06:21:22.950Z,1007.56
2017-12-21T06:22:22.973Z,1007.55
2017-12-21T06:23:22.884Z,1007.52
2017-12-21T06:24:22.965Z,1007.54
2017-12-21T06:25:22.850Z,1007.55
2017-12-21T06:26:24.822Z,1007.55
2017-12-21T06:27:22.828Z,1007.52
2017-12-21T06:28:22.813Z,1007.56
2017-12-21T06:29:24.341Z,1007.56
2017-12-21T06:30:22.724Z,1007.57
2017-12-21T06:31:22.873Z,1007.58
2017-12-21T06:32:22.687Z,1007.55
2017-12-21T06:33:22.943Z,1007.56
2017-12-21T06:34:22.662Z,1007.55
2017-12-21T06:35:22.964Z,1007.55
2017-12-21T06:39:16.725Z,1007.55
2017-12-21T06:40:17.734Z,1007.55
2017-12-21T06:41:15.958Z,1007.54
2017-12-21T06:42:16.580Z,1007.59
2017-12-21T06:43:15.989Z,1007.54
2017-12-21T06:44:16.588Z,1007.57
2017-12-21T06:45:16.841Z,1007.57
2017-12-21T06:46:16.534Z,1007.51
2017-12-21T06:47:15.985Z,1007.53
2017-12-21T06:48:16.484Z,1007.52
2017-12-21T06:49:15.980Z,1007.51
2017-12-21T06:50:16.421Z,1007.50
2017-12-21T06:51:15.907Z,1007.50
2017-12-21T06:52:15.792Z,1007.50
2017-12-21T06:53:16.400Z,1007.52
2017-12-21T06:54:16.353Z,1007.55
2017-12-21T06:55:15.815Z,1007.52
2017-12-21T06:56:16.822Z,1007.52
2017-12-21T06:57:15.637Z,1007.52
2017-12-21T06:58:15.744Z,1007.52
2017-12-21T06:59:16.372Z,1007.53
2017-12-21T07:00:15.364Z,1007.49
2017-12-21T07:01:15.241Z,1007.44
2017-12-21T07:02:15.174Z,1007.41
2017-12-21T07:03:15.173Z,1007.45
2017-12-21T07:04:15.132Z,1007.43
2017-12-21T07:05:15.143Z,1007.45
2017-12-21T07:06:15.085Z,1007.42
2017-12-21T07:07:15.151Z,1007.42
2017-12-21T07:08:15.046Z,1007.40
2017-12-21T07:09:15.023Z,1007.43
2017-12-21T07:10:15.010Z,1007.44
2017-12-21T07:11:14.966Z,1007.41
2017-12-21T07:12:15.008Z,1007.43
2017-12-21T07:13:14.968Z,1007.39
2017-12-21T07:14:14.885Z,1007.38
2017-12-21T07:15:14.912Z,1007.40
2017-12-21T07:16:14.926Z,1007.37
2017-12-21T07:17:14.855Z,1007.42
2017-12-21T07:18:14.802Z,1007.42
2017-12-21T07:19:14.772Z,1007.39
2017-12-21T07:20:14.756Z,1007.40
2017-12-21T07:21:14.747Z,1007.41
2017-12-21T07:22:14.754Z,1007.39
2017-12-21T07:23:14.693Z,1007.44
2017-12-21T07:24:14.689Z,1007.42
2017-12-21T07:25:14.649Z,1007.42
2017-12-21T07:26:14.716Z,1007.43
2017-12-21T07:27:14.634Z,1007.43
2017-12-21T07:28:14.694Z,1007.39
2017-12-21T07:29:14.586Z,1007.41
2017-12-21T07:30:14.538Z,1007.38
2017-12-21T07:31:15.435Z,1007.38
2017-12-21T07:32:14.478Z,1007.39
2017-12-21T07:33:14.548Z,1007.38
2017-12-21T07:34:14.506Z,1007.37
2017-12-21T07:35:14.983Z,1007.34
2017-12-21T07:40:03.682Z,1007.38
2017-12-21T07:41:04.770Z,1007.39
2017-12-21T07:42:03.655Z,1007.37
2017-12-21T07:43:03.843Z,1007.36
2017-12-21T07:44:08.782Z,1007.37
2017-12-21T08:15:54.747Z,1007.47
2017-12-21T08:16:54.448Z,1007.52
2017-12-21T08:17:54.528Z,1007.47
2017-12-21T08:18:55.179Z,1007.44
2017-12-21T08:19:54.617Z,1007.47
2017-12-21T08:20:55.175Z,1007.47
2017-12-21T08:21:54.519Z,1007.47
2017-12-21T08:22:54.241Z,1007.48
2017-12-21T08:23:54.128Z,1007.51
2017-12-21T08:24:54.150Z,1007.46
2017-12-21T08:25:54.096Z,1007.47
2017-12-21T08:26:54.097Z,1007.42
2017-12-21T08:27:54.092Z,1007.45
2017-12-21T08:28:54.027Z,1007.48
2017-12-21T08:29:54.100Z,1007.51
2017-12-21T08:30:53.990Z,1007.50
2017-12-21T08:31:54.112Z,1007.53
2017-12-21T08:32:54.062Z,1007.50
2017-12-21T08:33:54.092Z,1007.53
2017-12-21T08:34:54.806Z,1007.56
2017-12-21T08:35:53.872Z,1007.55
2017-12-21T08:36:53.873Z,1007.55
2017-12-21T08:37:53.828Z,1007.57
2017-12-21T08:38:53.792Z,1007.53
2017-12-21T08:39:53.854Z,1007.57
2017-12-21T08:40:53.870Z,1007.53
2017-12-21T08:41:54.370Z,1007.58
2017-12-21T08:42:53.750Z,1007.55
2017-12-21T08:43:53.825Z,1007.53
2017-12-21T08:44:53.852Z,1007.57
2017-12-21T08:45:54.615Z,1007.56
2017-12-21T08:46:53.604Z,1007.57
2017-12-21T08:47:53.595Z,1007.61
2017-12-21T08:48:53.576Z,1007.60
2017-12-21T08:49:53.565Z,1007.60
2017-12-21T08:50:53.600Z,1007.60
2017-12-21T08:51:53.530Z,1007.59
2017-12-21T08:52:53.555Z,1007.60
2017-12-21T08:53:53.509Z,1007.57
2017-12-21T08:54:53.417Z,1007.58
2017-12-21T08:55:53.421Z,1007.63
2017-12-21T08:56:54.107Z,1007.62
2017-12-21T08:57:53.401Z,1007.62
2017-12-21T08:58:53.331Z,1007.61
2017-12-21T08:59:53.366Z,1007.61
2017-12-21T09:00:53.366Z,1007.64
2017-12-21T09:01:53.256Z,1007.60
2017-12-21T09:02:53.265Z,1007.57
2017-12-21T09:03:53.278Z,1007.59
2017-12-21T09:04:53.253Z,1007.62
2017-12-21T09:05:53.430Z,1007.58
2017-12-21T09:06:53.203Z,1007.57
2017-12-21T09:07:54.074Z,1007.60
2017-12-21T09:08:53.140Z,1007.55
2017-12-21T09:09:53.101Z,1007.61
2017-12-21T09:10:53.146Z,1007.59
2017-12-21T09:11:53.046Z,1007.66
2017-12-21T09:12:53.060Z,1007.66
2017-12-21T09:13:53.025Z,1007.64
2017-12-21T09:14:53.007Z,1007.66
2017-12-21T09:15:52.959Z,1007.60
2017-12-21T09:16:52.933Z,1007.62
2017-12-21T09:17:53.000Z,1007.66
2017-12-21T09:18:52.891Z,1007.68
2017-12-21T09:19:52.936Z,1007.65
2017-12-21T09:20:52.889Z,1007.64
2017-12-21T09:21:53.572Z,1007.63
2017-12-21T09:22:52.870Z,1007.65
2017-12-21T09:23:54.572Z,1007.62
2017-12-21T09:54:19.752Z,1007.62
2017-12-21T09:59:44.924Z,1007.67
2017-12-21T10:14:39.167Z,1007.54
2017-12-21T10:47:50.883Z,1007.31
2017-12-21T10:48:50.378Z,1007.28
2017-12-21T11:05:31.464Z,1007.17
2017-12-21T11:07:52.891Z,1007.20
2017-12-21T11:08:52.268Z,1007.20
2017-12-21T11:09:51.733Z,1007.20
2017-12-21T11:14:36.709Z,1007.18
2017-12-21T11:36:30.496Z,1006.98
2017-12-21T11:38:56.358Z,1006.95
2017-12-21T11:50:08.738Z,1006.89
2017-12-21T11:59:43.996Z,1006.90
2017-12-21T12:05:01.546Z,1006.89
2017-12-21T12:06:02.717Z,1006.83
2017-12-21T12:07:00.751Z,1006.81
2017-12-21T12:08:00.809Z,1006.78
2017-12-21T12:09:02.320Z,1006.77
2017-12-21T12:10:02.350Z,1006.76
2017-12-21T12:11:01.309Z,1006.74
2017-12-21T12:12:01.057Z,1006.76
2017-12-21T12:13:01.484Z,1006.73
2017-12-21T12:14:02.818Z,1006.72
2017-12-21T12:15:22.395Z,1006.72
2017-12-21T12:16:01.212Z,1006.73
2017-12-21T12:17:00.705Z,1006.75
2017-12-21T12:18:01.193Z,1006.74
2017-12-21T12:19:00.712Z,1006.70
2017-12-21T12:20:00.773Z,1006.73
2017-12-21T12:22:26.604Z,1006.70
2017-12-21T12:23:26.145Z,1006.72
2017-12-21T12:24:26.892Z,1006.72
2017-12-21T12:25:26.454Z,1006.70
2017-12-21T12:26:26.672Z,1006.69
2017-12-21T12:27:26.406Z,1006.69
2017-12-21T12:28:26.469Z,1006.70
2017-12-21T12:29:25.400Z,1006.65
2017-12-21T12:30:26.490Z,1006.64
2017-12-21T12:31:26.269Z,1006.65
2017-12-21T12:32:26.701Z,1006.67
2017-12-21T12:35:48.231Z,1006.67
2017-12-21T12:36:48.263Z,1006.65
2017-12-21T12:37:47.302Z,1006.70
2017-12-21T12:38:47.740Z,1006.70
2017-12-21T12:39:48.162Z,1006.68
2017-12-21T12:40:47.720Z,1006.64
2017-12-21T12:41:47.666Z,1006.61
2017-12-21T12:42:48.742Z,1006.63
2017-12-21T12:43:48.125Z,1006.66
2017-12-21T12:44:47.787Z,1006.66
2017-12-21T12:45:47.697Z,1006.64
2017-12-21T12:46:47.267Z,1006.64
2017-12-21T12:47:47.228Z,1006.66
2017-12-21T12:48:47.735Z,1006.65
2017-12-21T12:49:47.863Z,1006.60
2017-12-21T12:50:48.201Z,1006.62
2017-12-21T12:51:50.746Z,1006.57
2017-12-21T12:52:47.305Z,1006.61
2017-12-21T12:53:45.236Z,1006.59
2017-12-21T12:54:44.881Z,1006.56
2017-12-21T12:55:44.915Z,1006.53
2017-12-21T12:56:44.774Z,1006.51
2017-12-21T12:57:44.742Z,1006.47
2017-12-21T12:58:44.420Z,1006.46
2017-12-21T12:59:44.618Z,1006.44
2017-12-21T13:00:44.568Z,1006.50
2017-12-21T13:01:45.553Z,1006.43
2017-12-21T13:02:44.911Z,1006.44
2017-12-21T13:07:46.605Z,1006.32
2017-12-21T13:08:45.328Z,1006.28
2017-12-21T13:09:44.852Z,1006.19
2017-12-21T13:10:45.097Z,1006.24
2017-12-21T13:11:44.884Z,1006.21
2017-12-21T13:12:44.733Z,1006.19
2017-12-21T13:13:44.384Z,1006.27
2017-12-21T13:14:44.730Z,1006.37
2017-12-21T13:15:45.131Z,1006.39
2017-12-21T13:16:44.255Z,1006.46
2017-12-21T13:17:44.851Z,1006.50
2017-12-21T13:18:44.803Z,1006.54
2017-12-21T13:19:44.978Z,1006.55
2017-12-21T13:20:45.416Z,1006.54
2017-12-21T13:21:44.660Z,1006.52
2017-12-21T13:22:45.842Z,1006.54
2017-12-21T13:23:44.630Z,1006.50
2017-12-21T13:24:44.825Z,1006.50
2017-12-21T13:25:45.642Z,1006.49
2017-12-21T13:26:43.709Z,1006.51
2017-12-21T13:27:43.817Z,1006.53
2017-12-21T13:28:41.641Z,1006.51
2017-12-21T13:29:41.773Z,1006.44
2017-12-21T13:30:42.133Z,1006.42
2017-12-21T13:31:45.053Z,1006.48
2017-12-21T13:32:41.553Z,1006.53
2017-12-21T13:33:42.003Z,1006.50
2017-12-21T13:34:41.807Z,1006.52
2017-12-21T13:35:41.462Z,1006.55
2017-12-21T13:36:41.908Z,1006.56
2017-12-21T13:37:42.068Z,1006.52
2017-12-21T13:38:41.844Z,1006.55
2017-12-21T13:39:41.539Z,1006.59
2017-12-21T13:40:41.998Z,1006.62
2017-12-21T13:41:42.043Z,1006.56
2017-12-21T13:42:43.230Z,1006.60
2017-12-21T13:43:41.475Z,1006.61
2017-12-21T13:44:41.365Z,1006.58
2017-12-21T13:45:41.717Z,1006.58
2017-12-21T13:46:41.415Z,1006.55
2017-12-21T13:47:41.855Z,1006.56
2017-12-21T13:48:41.761Z,1006.55
2017-12-21T13:49:41.499Z,1006.57
2017-12-21T13:50:42.406Z,1006.55
2017-12-21T13:53:28.729Z,1006.48
2017-12-21T13:54:28.990Z,1006.53
2017-12-21T13:56:23.754Z,1006.49
2017-12-21T13:57:23.903Z,1006.51
2017-12-21T13:58:24.391Z,1006.51
2017-12-21T13:59:25.370Z,1006.52
2017-12-21T14:00:24.359Z,1006.57
2017-12-21T14:01:24.310Z,1006.57
2017-12-21T14:02:24.294Z,1006.57
2017-12-21T14:03:24.245Z,1006.58
2017-12-21T14:04:23.740Z,1006.61
2017-12-21T14:05:23.452Z,1006.59
2017-12-21T14:06:23.364Z,1006.58
2017-12-21T14:07:23.532Z,1006.54
2017-12-21T14:08:23.374Z,1006.56
2017-12-21T14:09:23.473Z,1006.59
2017-12-21T14:10:23.221Z,1006.61
2017-12-21T14:11:23.496Z,1006.64
2017-12-21T14:12:23.203Z,1006.65
2017-12-21T14:13:23.210Z,1006.68
2017-12-21T14:14:23.339Z,1006.67
2017-12-21T14:15:23.268Z,1006.66
2017-12-21T14:16:23.404Z,1006.66
2017-12-21T14:17:23.258Z,1006.63
2017-12-21T14:18:24.910Z,1006.67
2017-12-21T14:19:23.149Z,1006.66
2017-12-21T14:20:23.281Z,1006.64
2017-12-21T14:21:23.648Z,1006.62
2017-12-21T14:22:23.791Z,1006.62
2017-12-21T14:23:23.111Z,1006.66
2017-12-21T14:24:23.372Z,1006.68
2017-12-21T14:25:23.511Z,1006.65
2017-12-21T14:26:23.003Z,1006.65
2017-12-21T14:27:23.053Z,1006.67
2017-12-21T14:28:22.960Z,1006.63
2017-12-21T14:29:23.147Z,1006.62
2017-12-21T14:30:23.123Z,1006.65
2017-12-21T14:31:23.576Z,1006.69
2017-12-21T14:32:23.567Z,1006.62
2017-12-21T14:33:22.931Z,1006.67
2017-12-21T14:34:22.903Z,1006.64
2017-12-21T14:35:22.864Z,1006.62
2017-12-21T14:36:22.800Z,1006.61
2017-12-21T14:37:22.663Z,1006.64
2017-12-21T14:38:22.813Z,1006.61
2017-12-21T14:39:22.534Z,1006.60
2017-12-21T14:40:23.113Z,1006.60
2017-12-21T14:41:23.128Z,1006.65
2017-12-21T14:42:22.778Z,1006.64
2017-12-21T14:43:22.615Z,1006.65
2017-12-21T14:44:22.734Z,1006.63
2017-12-21T14:45:22.748Z,1006.64
2017-12-21T14:46:22.742Z,1006.64
2017-12-21T14:47:22.937Z,1006.63
2017-12-21T14:48:22.546Z,1006.59
2017-12-21T14:49:22.571Z,1006.62
2017-12-21T14:50:22.619Z,1006.64
2017-12-21T14:51:23.072Z,1006.65
2017-12-21T14:52:22.354Z,1006.64
2017-12-21T14:53:22.700Z,1006.64
2017-12-21T14:54:22.911Z,1006.60
2017-12-21T14:55:22.727Z,1006.65
2017-12-21T14:56:22.754Z,1006.66
2017-12-21T14:57:22.386Z,1006.66
2017-12-21T14:58:22.557Z,1006.66
2017-12-21T14:59:22.292Z,1006.62
2017-12-21T15:00:22.619Z,1006.65
2017-12-21T15:01:22.738Z,1006.67
2017-12-21T15:02:22.476Z,1006.75
2017-12-21T15:03:22.588Z,1006.73
2017-12-21T15:04:22.393Z,1006.73
2017-12-21T15:05:22.260Z,1006.81
2017-12-21T15:06:22.119Z,1006.79
2017-12-21T15:07:22.135Z,1006.79
2017-12-21T15:08:22.222Z,1006.77
2017-12-21T15:09:22.218Z,1006.84
2017-12-21T15:10:21.980Z,1006.83
2017-12-21T15:11:21.912Z,1006.84
2017-12-21T15:12:22.046Z,1006.87
2017-12-21T15:13:21.956Z,1006.78
2017-12-21T15:14:21.916Z,1006.80
2017-12-21T15:15:21.850Z,1006.81
2017-12-21T15:16:22.269Z,1006.83
2017-12-21T15:17:21.731Z,1006.80
2017-12-21T15:18:21.689Z,1006.83
2017-12-21T15:19:21.919Z,1006.83
2017-12-21T15:20:21.686Z,1006.83
2017-12-21T15:21:21.638Z,1006.89
2017-12-21T15:22:22.005Z,1006.94